Weather at Ste-Agathe (AIM) Heliport

Public forecast

Using degrees Celsius for public forecast. Weather courtesy of forecast.io.

Closest aviation weather report (METAR) to Ste-Agathe (AIM) Heliport

Closest report is Montreal International (Mirabel) Airport, 28.0 nm (51.9 km) SSE.

2024/05/30 04:00 (retrieved 20 minutes ago)

CYMX 300400Z 34008KT 25SM FEW220 11/04 A2998 RMK CI2 SLP157

Closest aviation forecast (TAF) to Ste-Agathe (AIM) Heliport

Forecast is more than 6 hours old.

Closest forecast is Ottawa / Gatineau Airport, 63.8 nm (118.2 km) WSW.

2024/05/29 18:00 (retrieved 10 hours ago)

TAF CYND 291740Z 2918/3001 32012KT P6SM FEW040 BKN240 RMK NXT FCST BY 301300Z